Main page
METAR-TAF:

METAR-TAF

Airports :

Dundee Airport

Dundee, Scotland

latitude: 56-27N, longitude: 003-01W, elevation: 4 m

Current weather observation

The report was made 30 minutes ago, at 16:20 UTC
Wind 10 kt from the West/Southwest
Temperature 20°C
Humidity 53%
Pressure 1020 hPa
Visibility 10 km or more
Few clouds at a height of 3500 ft

METAR: EGPN 221620Z 25010KT 9999 FEW035 20/10 Q1020

Time: 17:50 (16:50 UTC)

Forecast

The report was made 2 hours and 51 minutes ago, at 13:59 UTC
Forecast valid from 22 at 15 UTC to 22 at 21 UTC
Wind 9 kt from the Southwest
Visibility 10 km or more
Few clouds at a height of 2500 ft
Temporary
from 22 at 15 UTC to 22 at 20 UTC
Wind 10 kt from the East/Southeast

TAF: EGPN 221359Z 2215/2221 23009KT 9999 FEW025 TEMPO 2215/2220 12010KT

Weather observations and forecasts of more than 4000 airports (METAR and TAF reports).

The available stations are represented by yellow and red dots on the map.

Hover mouse over dot to see the name of the station.

Then click to see weather observations and forecasts.

To change the map : click on the green buttons with a black cross to zoom in, on the green button with a dash to zoom out, or on the green arrows for adjacent maps.


METAR-TAF: